sensor_id;sensor_type;location;lat;lon;timestamp;pressure;altitude;pressure_sealevel;temperature;humidity
62458;BME280;48509;52.122;5.250;2023-12-20T00:01:32;101513.0;;;8.47;100.0
62458;BME280;48509;52.122;5.250;2023-12-20T00:03:08;101513.0;;;8.43;100.0
62458;BME280;48509;52.122;5.250;2023-12-20T00:06:20;101512.0;;;8.34;100.0
62458;BME280;48509;52.122;5.250;2023-12-20T00:07:56;101515.0;;;8.47;100.0
62458;BME280;48509;52.122;5.250;2023-12-20T00:09:32;101512.0;;;8.33;100.0
62458;BME280;48509;52.122;5.250;2023-12-20T00:14:20;101511.0;;;8.36;100.0
62458;BME280;48509;52.122;5.250;2023-12-20T00:15:56;101501.0;;;8.22;100.0
62458;BME280;48509;52.122;5.250;2023-12-20T00:19:09;101509.0;;;8.14;100.0
62458;BME280;48509;52.122;5.250;2023-12-20T00:20:45;101511.0;;;8.14;100.0
62458;BME280;48509;52.122;5.250;2023-12-20T00:22:21;101505.0;;;8.11;100.0
62458;BME280;48509;52.122;5.250;2023-12-20T00:23:57;101498.0;;;7.95;100.0
62458;BME280;48509;52.122;5.250;2023-12-20T00:27:09;101491.0;;;8.0;100.0
62458;BME280;48509;52.122;5.250;2023-12-20T00:28:45;101491.0;;;7.94;100.0
62458;BME280;48509;52.122;5.250;2023-12-20T00:30:21;101497.0;;;7.98;100.0
62458;BME280;48509;52.122;5.250;2023-12-20T00:33:34;101505.0;;;7.98;100.0
62458;BME280;48509;52.122;5.250;2023-12-20T00:35:10;101506.0;;;7.98;100.0
62458;BME280;48509;52.122;5.250;2023-12-20T00:36:46;101509.0;;;7.99;100.0
62458;BME280;48509;52.122;5.250;2023-12-20T00:39:58;101514.0;;;7.84;100.0
62458;BME280;48509;52.122;5.250;2023-12-20T00:41:37;101511.0;;;7.86;100.0
62458;BME280;48509;52.122;5.250;2023-12-20T00:43:13;101513.0;;;7.88;100.0
62458;BME280;48509;52.122;5.250;2023-12-20T00:44:49;101505.0;;;7.89;100.0
62458;BME280;48509;52.122;5.250;2023-12-20T00:48:02;101505.0;;;7.82;100.0
62458;BME280;48509;52.122;5.250;2023-12-20T00:49:37;101502.0;;;7.79;100.0
62458;BME280;48509;52.122;5.250;2023-12-20T00:51:13;101501.0;;;7.9;100.0
62458;BME280;48509;52.122;5.250;2023-12-20T00:54:26;101501.0;;;7.82;100.0
62458;BME280;48509;52.122;5.250;2023-12-20T00:56:02;101500.0;;;7.86;100.0
62458;BME280;48509;52.122;5.250;2023-12-20T00:57:38;101506.0;;;7.88;100.0
62458;BME280;48509;52.122;5.250;2023-12-20T01:00:52;101507.0;;;7.86;100.0
62458;BME280;48509;52.122;5.250;2023-12-20T01:02:28;101506.0;;;7.81;100.0
62458;BME280;48509;52.122;5.250;2023-12-20T01:04:04;101506.0;;;7.71;100.0
62458;BME280;48509;52.122;5.250;2023-12-20T01:07:16;101496.0;;;7.78;100.0
62458;BME280;48509;52.122;5.250;2023-12-20T01:08:53;101491.0;;;7.76;100.0
62458;BME280;48509;52.122;5.250;2023-12-20T01:10:29;101496.0;;;7.83;100.0
62458;BME280;48509;52.122;5.250;2023-12-20T01:12:05;101499.0;;;7.86;100.0
62458;BME280;48509;52.122;5.250;2023-12-20T01:15:18;101498.0;;;7.89;100.0
62458;BME280;48509;52.122;5.250;2023-12-20T01:16:54;101496.0;;;7.83;100.0
62458;BME280;48509;52.122;5.250;2023-12-20T01:18:30;101495.0;;;7.94;100.0
62458;BME280;48509;52.122;5.250;2023-12-20T01:21:43;101503.0;;;7.82;100.0
62458;BME280;48509;52.122;5.250;2023-12-20T01:23:19;101512.0;;;7.94;100.0
62458;BME280;48509;52.122;5.250;2023-12-20T01:24:55;101515.0;;;7.84;100.0
62458;BME280;48509;52.122;5.250;2023-12-20T01:28:08;101517.0;;;8.07;100.0
62458;BME280;48509;52.122;5.250;2023-12-20T01:29:44;101513.0;;;8.19;100.0
62458;BME280;48509;52.122;5.250;2023-12-20T01:31:20;101507.0;;;8.15;100.0
62458;BME280;48509;52.122;5.250;2023-12-20T01:34:32;101505.0;;;8.09;100.0
62458;BME280;48509;52.122;5.250;2023-12-20T01:36:08;101498.0;;;8.23;100.0
62458;BME280;48509;52.122;5.250;2023-12-20T01:37:44;101495.0;;;8.25;100.0
62458;BME280;48509;52.122;5.250;2023-12-20T01:39:20;101490.0;;;8.16;100.0
62458;BME280;48509;52.122;5.250;2023-12-20T01:42:33;101497.0;;;8.17;100.0
62458;BME280;48509;52.122;5.250;2023-12-20T01:44:09;101497.0;;;8.23;100.0
62458;BME280;48509;52.122;5.250;2023-12-20T01:45:45;101495.0;;;8.33;100.0
62458;BME280;48509;52.122;5.250;2023-12-20T01:48:58;101492.0;;;8.38;100.0
62458;BME280;48509;52.122;5.250;2023-12-20T01:50:35;101496.0;;;8.35;100.0
62458;BME280;48509;52.122;5.250;2023-12-20T01:52:13;101498.0;;;8.44;100.0
62458;BME280;48509;52.122;5.250;2023-12-20T01:55:25;101498.0;;;8.39;100.0
62458;BME280;48509;52.122;5.250;2023-12-20T01:57:04;101496.0;;;8.47;100.0
62458;BME280;48509;52.122;5.250;2023-12-20T01:58:44;101501.0;;;8.36;100.0
62458;BME280;48509;52.122;5.250;2023-12-20T02:00:25;101503.0;;;8.35;100.0
62458;BME280;48509;52.122;5.250;2023-12-20T02:03:39;101497.0;;;8.25;100.0
62458;BME280;48509;52.122;5.250;2023-12-20T02:05:17;101492.0;;;8.34;100.0
62458;BME280;48509;52.122;5.250;2023-12-20T02:06:55;101497.0;;;8.31;100.0
62458;BME280;48509;52.122;5.250;2023-12-20T02:08:31;101496.0;;;8.38;100.0
62458;BME280;48509;52.122;5.250;2023-12-20T02:11:43;101498.0;;;8.41;100.0
62458;BME280;48509;52.122;5.250;2023-12-20T02:13:20;101496.0;;;8.39;100.0
62458;BME280;48509;52.122;5.250;2023-12-20T02:14:56;101493.0;;;8.34;100.0
62458;BME280;48509;52.122;5.250;2023-12-20T02:18:08;101491.0;;;8.33;100.0
62458;BME280;48509;52.122;5.250;2023-12-20T02:19:44;101494.0;;;8.32;100.0
62458;BME280;48509;52.122;5.250;2023-12-20T02:21:24;101497.0;;;8.4;100.0
62458;BME280;48509;52.122;5.250;2023-12-20T02:24:39;101493.0;;;8.48;100.0
62458;BME280;48509;52.122;5.250;2023-12-20T02:26:16;101487.0;;;8.53;100.0
62458;BME280;48509;52.122;5.250;2023-12-20T02:27:52;101487.0;;;8.57;100.0
62458;BME280;48509;52.122;5.250;2023-12-20T02:29:29;101487.0;;;8.56;100.0
62458;BME280;48509;52.122;5.250;2023-12-20T02:32:41;101483.0;;;8.49;100.0
62458;BME280;48509;52.122;5.250;2023-12-20T02:34:17;101487.0;;;8.53;100.0
62458;BME280;48509;52.122;5.250;2023-12-20T02:35:53;101483.0;;;8.66;100.0
62458;BME280;48509;52.122;5.250;2023-12-20T02:39:05;101482.0;;;8.55;100.0
62458;BME280;48509;52.122;5.250;2023-12-20T02:40:41;101480.0;;;8.65;100.0
62458;BME280;48509;52.122;5.250;2023-12-20T02:42:17;101480.0;;;8.59;100.0
62458;BME280;48509;52.122;5.250;2023-12-20T02:45:30;101476.0;;;8.76;100.0
62458;BME280;48509;52.122;5.250;2023-12-20T02:47:06;101474.0;;;8.92;100.0
62458;BME280;48509;52.122;5.250;2023-12-20T02:48:42;101474.0;;;8.78;100.0
62458;BME280;48509;52.122;5.250;2023-12-20T02:51:54;101477.0;;;8.77;100.0
62458;BME280;48509;52.122;5.250;2023-12-20T02:53:30;101480.0;;;8.93;100.0
62458;BME280;48509;52.122;5.250;2023-12-20T02:55:06;101477.0;;;8.71;100.0
62458;BME280;48509;52.122;5.250;2023-12-20T02:56:45;101462.0;;;8.68;100.0
62458;BME280;48509;52.122;5.250;2023-12-20T02:59:58;101455.0;;;8.81;100.0
62458;BME280;48509;52.122;5.250;2023-12-20T03:01:35;101447.0;;;8.89;100.0
62458;BME280;48509;52.122;5.250;2023-12-20T03:03:11;101447.0;;;8.74;100.0
62458;BME280;48509;52.122;5.250;2023-12-20T03:06:23;101438.0;;;8.67;100.0
62458;BME280;48509;52.122;5.250;2023-12-20T03:08:04;101434.0;;;8.69;100.0
62458;BME280;48509;52.122;5.250;2023-12-20T03:09:40;101435.0;;;8.73;100.0
62458;BME280;48509;52.122;5.250;2023-12-20T03:11:16;101440.0;;;8.73;100.0
62458;BME280;48509;52.122;5.250;2023-12-20T03:14:28;101442.0;;;8.75;100.0
62458;BME280;48509;52.122;5.250;2023-12-20T03:16:08;101443.0;;;8.83;100.0
62458;BME280;48509;52.122;5.250;2023-12-20T03:17:44;101445.0;;;8.83;100.0
62458;BME280;48509;52.122;5.250;2023-12-20T03:20:57;101439.0;;;8.73;100.0
62458;BME280;48509;52.122;5.250;2023-12-20T03:22:33;101448.0;;;8.61;100.0
62458;BME280;48509;52.122;5.250;2023-12-20T03:24:09;101445.0;;;8.64;100.0
62458;BME280;48509;52.122;5.250;2023-12-20T03:27:21;101445.0;;;8.67;100.0
62458;BME280;48509;52.122;5.250;2023-12-20T03:28:57;101447.0;;;8.72;100.0
62458;BME280;48509;52.122;5.250;2023-12-20T03:30:36;101446.0;;;8.63;100.0
62458;BME280;48509;52.122;5.250;2023-12-20T03:32:12;101444.0;;;8.65;100.0
62458;BME280;48509;52.122;5.250;2023-12-20T03:35:24;101449.0;;;8.76;100.0
62458;BME280;48509;52.122;5.250;2023-12-20T03:37:01;101448.0;;;8.84;100.0
62458;BME280;48509;52.122;5.250;2023-12-20T03:38:37;101442.0;;;8.84;100.0
62458;BME280;48509;52.122;5.250;2023-12-20T03:41:49;101441.0;;;8.82;100.0
62458;BME280;48509;52.122;5.250;2023-12-20T03:43:25;101439.0;;;8.85;100.0
62458;BME280;48509;52.122;5.250;2023-12-20T03:45:01;101450.0;;;8.99;100.0
62458;BME280;48509;52.122;5.250;2023-12-20T03:48:13;101450.0;;;8.91;100.0
62458;BME280;48509;52.122;5.250;2023-12-20T03:49:49;101452.0;;;8.94;100.0
62458;BME280;48509;52.122;5.250;2023-12-20T03:51:25;101455.0;;;8.81;100.0
62458;BME280;48509;52.122;5.250;2023-12-20T03:54:41;101452.0;;;8.94;100.0
62458;BME280;48509;52.122;5.250;2023-12-20T03:57:53;101455.0;;;8.81;100.0
62458;BME280;48509;52.122;5.250;2023-12-20T03:59:29;101455.0;;;8.89;100.0
62458;BME280;48509;52.122;5.250;2023-12-20T04:02:45;101456.0;;;8.86;100.0
62458;BME280;48509;52.122;5.250;2023-12-20T04:04:21;101455.0;;;8.98;100.0
62458;BME280;48509;52.122;5.250;2023-12-20T04:05:57;101452.0;;;8.93;100.0
62458;BME280;48509;52.122;5.250;2023-12-20T04:09:11;101456.0;;;8.89;100.0
62458;BME280;48509;52.122;5.250;2023-12-20T04:10:47;101455.0;;;8.88;100.0
62458;BME280;48509;52.122;5.250;2023-12-20T04:12:24;101455.0;;;8.88;100.0
62458;BME280;48509;52.122;5.250;2023-12-20T04:15:36;101451.0;;;8.89;100.0
62458;BME280;48509;52.122;5.250;2023-12-20T04:17:12;101448.0;;;8.83;100.0
62458;BME280;48509;52.122;5.250;2023-12-20T04:18:50;101440.0;;;8.91;100.0
62458;BME280;48509;52.122;5.250;2023-12-20T04:20:26;101442.0;;;8.89;100.0
62458;BME280;48509;52.122;5.250;2023-12-20T04:23:38;101444.0;;;8.85;100.0
62458;BME280;48509;52.122;5.250;2023-12-20T04:25:14;101443.0;;;8.86;100.0
62458;BME280;48509;52.122;5.250;2023-12-20T04:26:50;101440.0;;;8.89;100.0
62458;BME280;48509;52.122;5.250;2023-12-20T04:30:03;101444.0;;;9.06;100.0
62458;BME280;48509;52.122;5.250;2023-12-20T04:31:40;101446.0;;;8.9;100.0
62458;BME280;48509;52.122;5.250;2023-12-20T04:33:16;101438.0;;;8.93;100.0
62458;BME280;48509;52.122;5.250;2023-12-20T04:36:28;101438.0;;;8.91;100.0
62458;BME280;48509;52.122;5.250;2023-12-20T04:38:04;101436.0;;;8.89;100.0
62458;BME280;48509;52.122;5.250;2023-12-20T04:39:40;101445.0;;;9.05;100.0
62458;BME280;48509;52.122;5.250;2023-12-20T04:41:16;101436.0;;;9.05;100.0
62458;BME280;48509;52.122;5.250;2023-12-20T04:44:29;101439.0;;;9.13;100.0
62458;BME280;48509;52.122;5.250;2023-12-20T04:46:05;101435.0;;;9.07;100.0
62458;BME280;48509;52.122;5.250;2023-12-20T04:47:41;101440.0;;;9.18;100.0
62458;BME280;48509;52.122;5.250;2023-12-20T04:50:54;101441.0;;;9.22;100.0
62458;BME280;48509;52.122;5.250;2023-12-20T04:52:30;101444.0;;;9.3;100.0
62458;BME280;48509;52.122;5.250;2023-12-20T04:54:06;101443.0;;;9.3;100.0
62458;BME280;48509;52.122;5.250;2023-12-20T04:57:18;101438.0;;;9.22;100.0
62458;BME280;48509;52.122;5.250;2023-12-20T04:58:55;101437.0;;;9.32;100.0
62458;BME280;48509;52.122;5.250;2023-12-20T05:00:31;101439.0;;;9.24;100.0
62458;BME280;48509;52.122;5.250;2023-12-20T05:03:43;101430.0;;;9.13;100.0
62458;BME280;48509;52.122;5.250;2023-12-20T05:05:20;101436.0;;;9.18;100.0
62458;BME280;48509;52.122;5.250;2023-12-20T05:06:56;101430.0;;;9.14;100.0
62458;BME280;48509;52.122;5.250;2023-12-20T05:08:32;101422.0;;;9.22;100.0
62458;BME280;48509;52.122;5.250;2023-12-20T05:11:45;101424.0;;;9.35;100.0
62458;BME280;48509;52.122;5.250;2023-12-20T05:13:21;101430.0;;;9.28;100.0
62458;BME280;48509;52.122;5.250;2023-12-20T05:14:58;101427.0;;;9.39;100.0
62458;BME280;48509;52.122;5.250;2023-12-20T05:18:11;101427.0;;;9.33;100.0
62458;BME280;48509;52.122;5.250;2023-12-20T05:19:47;101433.0;;;9.44;100.0
62458;BME280;48509;52.122;5.250;2023-12-20T05:21:23;101436.0;;;9.42;100.0
62458;BME280;48509;52.122;5.250;2023-12-20T05:24:38;101435.0;;;9.32;100.0
62458;BME280;48509;52.122;5.250;2023-12-20T05:26:14;101438.0;;;9.21;100.0
62458;BME280;48509;52.122;5.250;2023-12-20T05:27:50;101433.0;;;9.21;100.0
62458;BME280;48509;52.122;5.250;2023-12-20T05:29:26;101440.0;;;9.31;100.0
62458;BME280;48509;52.122;5.250;2023-12-20T05:32:38;101430.0;;;9.22;100.0
62458;BME280;48509;52.122;5.250;2023-12-20T05:34:14;101421.0;;;9.24;100.0
62458;BME280;48509;52.122;5.250;2023-12-20T05:35:50;101423.0;;;9.31;100.0
62458;BME280;48509;52.122;5.250;2023-12-20T05:39:02;101432.0;;;9.23;100.0
62458;BME280;48509;52.122;5.250;2023-12-20T05:40:39;101432.0;;;9.14;100.0
62458;BME280;48509;52.122;5.250;2023-12-20T05:42:15;101430.0;;;9.16;100.0
62458;BME280;48509;52.122;5.250;2023-12-20T05:45:27;101425.0;;;9.22;100.0
62458;BME280;48509;52.122;5.250;2023-12-20T05:47:03;101432.0;;;9.27;100.0
62458;BME280;48509;52.122;5.250;2023-12-20T05:48:39;101434.0;;;9.32;100.0
62458;BME280;48509;52.122;5.250;2023-12-20T05:50:15;101436.0;;;9.43;100.0
62458;BME280;48509;52.122;5.250;2023-12-20T05:53:28;101432.0;;;9.3;100.0
62458;BME280;48509;52.122;5.250;2023-12-20T05:55:04;101437.0;;;9.43;100.0
62458;BME280;48509;52.122;5.250;2023-12-20T05:56:40;101437.0;;;9.49;100.0
62458;BME280;48509;52.122;5.250;2023-12-20T05:59:52;101431.0;;;9.41;100.0
62458;BME280;48509;52.122;5.250;2023-12-20T06:01:28;101431.0;;;9.38;100.0
62458;BME280;48509;52.122;5.250;2023-12-20T06:03:04;101433.0;;;9.46;100.0
62458;BME280;48509;52.122;5.250;2023-12-20T06:06:17;101434.0;;;9.42;100.0
62458;BME280;48509;52.122;5.250;2023-12-20T06:07:53;101433.0;;;9.44;100.0
62458;BME280;48509;52.122;5.250;2023-12-20T06:09:29;101437.0;;;9.42;100.0
62458;BME280;48509;52.122;5.250;2023-12-20T06:12:42;101430.0;;;9.4;100.0
62458;BME280;48509;52.122;5.250;2023-12-20T06:14:18;101426.0;;;9.4;100.0
62458;BME280;48509;52.122;5.250;2023-12-20T06:15:54;101424.0;;;9.48;100.0
62458;BME280;48509;52.122;5.250;2023-12-20T06:17:30;101421.0;;;9.41;100.0
62458;BME280;48509;52.122;5.250;2023-12-20T06:20:45;101424.0;;;9.52;100.0
62458;BME280;48509;52.122;5.250;2023-12-20T06:22:21;101421.0;;;9.48;100.0
62458;BME280;48509;52.122;5.250;2023-12-20T06:23:58;101415.0;;;9.44;100.0
62458;BME280;48509;52.122;5.250;2023-12-20T06:27:10;101418.0;;;9.47;100.0
62458;BME280;48509;52.122;5.250;2023-12-20T06:28:47;101421.0;;;9.44;100.0
62458;BME280;48509;52.122;5.250;2023-12-20T06:30:23;101423.0;;;9.39;100.0
62458;BME280;48509;52.122;5.250;2023-12-20T06:33:35;101421.0;;;9.36;100.0
62458;BME280;48509;52.122;5.250;2023-12-20T06:35:12;101418.0;;;9.41;100.0
62458;BME280;48509;52.122;5.250;2023-12-20T06:36:48;101415.0;;;9.47;100.0
62458;BME280;48509;52.122;5.250;2023-12-20T06:38:24;101412.0;;;9.44;100.0
62458;BME280;48509;52.122;5.250;2023-12-20T06:41:39;101411.0;;;9.47;100.0
62458;BME280;48509;52.122;5.250;2023-12-20T06:43:16;101415.0;;;9.32;100.0
62458;BME280;48509;52.122;5.250;2023-12-20T06:44:52;101415.0;;;9.41;100.0
62458;BME280;48509;52.122;5.250;2023-12-20T06:48:05;101414.0;;;9.3;100.0
62458;BME280;48509;52.122;5.250;2023-12-20T06:49:41;101408.0;;;9.48;100.0
62458;BME280;48509;52.122;5.250;2023-12-20T06:51:17;101402.0;;;9.57;100.0
62458;BME280;48509;52.122;5.250;2023-12-20T06:54:32;101405.0;;;9.53;100.0
62458;BME280;48509;52.122;5.250;2023-12-20T06:56:11;101405.0;;;9.59;100.0
62458;BME280;48509;52.122;5.250;2023-12-20T06:57:46;101407.0;;;9.63;100.0
62458;BME280;48509;52.122;5.250;2023-12-20T06:59:22;101410.0;;;9.55;100.0
62458;BME280;48509;52.122;5.250;2023-12-20T07:02:35;101408.0;;;9.64;100.0
62458;BME280;48509;52.122;5.250;2023-12-20T07:04:14;101405.0;;;9.64;100.0
62458;BME280;48509;52.122;5.250;2023-12-20T07:05:50;101410.0;;;9.68;100.0
62458;BME280;48509;52.122;5.250;2023-12-20T07:09:02;101408.0;;;9.73;100.0
62458;BME280;48509;52.122;5.250;2023-12-20T07:10:38;101405.0;;;9.66;100.0
62458;BME280;48509;52.122;5.250;2023-12-20T07:12:14;101403.0;;;9.66;100.0
62458;BME280;48509;52.122;5.250;2023-12-20T07:15:29;101398.0;;;9.52;100.0
62458;BME280;48509;52.122;5.250;2023-12-20T07:17:06;101400.0;;;9.64;100.0
62458;BME280;48509;52.122;5.250;2023-12-20T07:18:42;101391.0;;;9.59;100.0
62458;BME280;48509;52.122;5.250;2023-12-20T07:20:18;101387.0;;;9.55;100.0
62458;BME280;48509;52.122;5.250;2023-12-20T07:23:30;101382.0;;;9.56;100.0
62458;BME280;48509;52.122;5.250;2023-12-20T07:25:07;101375.0;;;9.75;100.0
62458;BME280;48509;52.122;5.250;2023-12-20T07:26:46;101378.0;;;9.66;100.0
62458;BME280;48509;52.122;5.250;2023-12-20T07:29:58;101376.0;;;9.58;100.0
62458;BME280;48509;52.122;5.250;2023-12-20T07:31:34;101380.0;;;9.58;100.0
62458;BME280;48509;52.122;5.250;2023-12-20T07:33:10;101373.0;;;9.72;100.0
62458;BME280;48509;52.122;5.250;2023-12-20T07:36:23;101372.0;;;9.72;100.0
62458;BME280;48509;52.122;5.250;2023-12-20T07:38:02;101371.0;;;9.74;100.0
62458;BME280;48509;52.122;5.250;2023-12-20T07:39:39;101373.0;;;9.81;100.0
62458;BME280;48509;52.122;5.250;2023-12-20T07:41:15;101372.0;;;9.82;100.0
62458;BME280;48509;52.122;5.250;2023-12-20T07:44:27;101378.0;;;9.92;100.0
62458;BME280;48509;52.122;5.250;2023-12-20T07:46:04;101385.0;;;9.85;100.0
62458;BME280;48509;52.122;5.250;2023-12-20T07:47:40;101378.0;;;9.69;100.0
62458;BME280;48509;52.122;5.250;2023-12-20T07:50:53;101384.0;;;9.65;100.0
62458;BME280;48509;52.122;5.250;2023-12-20T07:52:29;101389.0;;;9.68;100.0
62458;BME280;48509;52.122;5.250;2023-12-20T07:54:05;101391.0;;;9.64;100.0
62458;BME280;48509;52.122;5.250;2023-12-20T07:57:17;101391.0;;;9.78;100.0
62458;BME280;48509;52.122;5.250;2023-12-20T07:58:53;101397.0;;;9.78;100.0
62458;BME280;48509;52.122;5.250;2023-12-20T08:00:29;101394.0;;;9.73;100.0
62458;BME280;48509;52.122;5.250;2023-12-20T08:02:05;101405.0;;;9.77;100.0
62458;BME280;48509;52.122;5.250;2023-12-20T08:05:18;101410.0;;;9.74;100.0
62458;BME280;48509;52.122;5.250;2023-12-20T08:06:53;101415.0;;;9.81;100.0
62458;BME280;48509;52.122;5.250;2023-12-20T08:08:30;101423.0;;;9.82;100.0
62458;BME280;48509;52.122;5.250;2023-12-20T08:11:45;101417.0;;;9.78;100.0
62458;BME280;48509;52.122;5.250;2023-12-20T08:13:21;101407.0;;;9.85;100.0
62458;BME280;48509;52.122;5.250;2023-12-20T08:14:57;101408.0;;;9.8;100.0
62458;BME280;48509;52.122;5.250;2023-12-20T08:18:09;101406.0;;;9.83;100.0
62458;BME280;48509;52.122;5.250;2023-12-20T08:19:45;101407.0;;;9.68;100.0
62458;BME280;48509;52.122;5.250;2023-12-20T08:21:21;101409.0;;;9.8;100.0
62458;BME280;48509;52.122;5.250;2023-12-20T08:22:58;101400.0;;;9.8;100.0
62458;BME280;48509;52.122;5.250;2023-12-20T08:26:10;101396.0;;;9.81;100.0
62458;BME280;48509;52.122;5.250;2023-12-20T08:27:46;101400.0;;;9.83;100.0
62458;BME280;48509;52.122;5.250;2023-12-20T08:29:22;101400.0;;;9.89;100.0
62458;BME280;48509;52.122;5.250;2023-12-20T08:32:34;101399.0;;;9.92;100.0
62458;BME280;48509;52.122;5.250;2023-12-20T08:34:13;101396.0;;;9.84;100.0
62458;BME280;48509;52.122;5.250;2023-12-20T08:35:49;101389.0;;;10.0;100.0
62458;BME280;48509;52.122;5.250;2023-12-20T08:39:02;101380.0;;;9.98;100.0
62458;BME280;48509;52.122;5.250;2023-12-20T08:40:38;101382.0;;;9.97;100.0
62458;BME280;48509;52.122;5.250;2023-12-20T08:42:14;101388.0;;;9.86;100.0
62458;BME280;48509;52.122;5.250;2023-12-20T08:45:26;101388.0;;;9.9;100.0
62458;BME280;48509;52.122;5.250;2023-12-20T08:47:02;101392.0;;;9.86;100.0
62458;BME280;48509;52.122;5.250;2023-12-20T08:48:39;101389.0;;;9.9;100.0
62458;BME280;48509;52.122;5.250;2023-12-20T08:50:15;101396.0;;;10.0;100.0
62458;BME280;48509;52.122;5.250;2023-12-20T08:53:27;101399.0;;;9.92;100.0
62458;BME280;48509;52.122;5.250;2023-12-20T08:55:04;101398.0;;;10.01;100.0
62458;BME280;48509;52.122;5.250;2023-12-20T08:56:41;101398.0;;;10.02;100.0
62458;BME280;48509;52.122;5.250;2023-12-20T08:59:53;101388.0;;;10.03;100.0
62458;BME280;48509;52.122;5.250;2023-12-20T09:01:29;101396.0;;;10.06;100.0
62458;BME280;48509;52.122;5.250;2023-12-20T09:03:05;101395.0;;;9.98;100.0
62458;BME280;48509;52.122;5.250;2023-12-20T09:06:18;101393.0;;;9.89;100.0
62458;BME280;48509;52.122;5.250;2023-12-20T09:07:54;101386.0;;;9.82;100.0
62458;BME280;48509;52.122;5.250;2023-12-20T09:09:30;101389.0;;;10.02;100.0
62458;BME280;48509;52.122;5.250;2023-12-20T09:11:06;101388.0;;;10.02;100.0
62458;BME280;48509;52.122;5.250;2023-12-20T09:14:19;101389.0;;;10.05;100.0
62458;BME280;48509;52.122;5.250;2023-12-20T09:15:55;101391.0;;;10.02;100.0
62458;BME280;48509;52.122;5.250;2023-12-20T09:17:31;101388.0;;;10.06;100.0
62458;BME280;48509;52.122;5.250;2023-12-20T09:20:46;101391.0;;;10.03;100.0
62458;BME280;48509;52.122;5.250;2023-12-20T09:22:22;101396.0;;;9.89;100.0
62458;BME280;48509;52.122;5.250;2023-12-20T09:23:58;101385.0;;;10.0;100.0
62458;BME280;48509;52.122;5.250;2023-12-20T09:27:11;101391.0;;;10.05;100.0
62458;BME280;48509;52.122;5.250;2023-12-20T09:28:47;101387.0;;;9.99;100.0
62458;BME280;48509;52.122;5.250;2023-12-20T09:30:23;101395.0;;;9.99;100.0
62458;BME280;48509;52.122;5.250;2023-12-20T09:33:35;101386.0;;;10.09;100.0
62458;BME280;48509;52.122;5.250;2023-12-20T09:35:12;101385.0;;;10.09;100.0
62458;BME280;48509;52.122;5.250;2023-12-20T09:36:48;101392.0;;;10.17;100.0
62458;BME280;48509;52.122;5.250;2023-12-20T09:38:24;101386.0;;;10.23;100.0
62458;BME280;48509;52.122;5.250;2023-12-20T09:41:43;101390.0;;;10.29;100.0
62458;BME280;48509;52.122;5.250;2023-12-20T09:43:20;101384.0;;;10.23;100.0
62458;BME280;48509;52.122;5.250;2023-12-20T09:45:01;101384.0;;;10.27;100.0
62458;BME280;48509;52.122;5.250;2023-12-20T09:48:19;101398.0;;;10.35;100.0
62458;BME280;48509;52.122;5.250;2023-12-20T09:49:55;101400.0;;;10.35;100.0
62458;BME280;48509;52.122;5.250;2023-12-20T09:51:32;101399.0;;;10.36;100.0
62458;BME280;48509;52.122;5.250;2023-12-20T09:53:15;101398.0;;;10.22;100.0
62458;BME280;48509;52.122;5.250;2023-12-20T09:56:31;101396.0;;;10.38;100.0
62458;BME280;48509;52.122;5.250;2023-12-20T09:58:08;101392.0;;;10.47;100.0
62458;BME280;48509;52.122;5.250;2023-12-20T09:59:44;101392.0;;;10.43;100.0
62458;BME280;48509;52.122;5.250;2023-12-20T10:01:21;101402.0;;;10.46;100.0
62458;BME280;48509;52.122;5.250;2023-12-20T10:04:36;101412.0;;;10.48;100.0
62458;BME280;48509;52.122;5.250;2023-12-20T10:06:12;101427.0;;;10.4;100.0
62458;BME280;48509;52.122;5.250;2023-12-20T10:07:48;101417.0;;;10.42;100.0
62458;BME280;48509;52.122;5.250;2023-12-20T10:11:00;101412.0;;;10.4;100.0
62458;BME280;48509;52.122;5.250;2023-12-20T10:12:36;101417.0;;;10.41;100.0
62458;BME280;48509;52.122;5.250;2023-12-20T10:14:12;101419.0;;;10.42;100.0
62458;BME280;48509;52.122;5.250;2023-12-20T10:17:27;101416.0;;;10.5;100.0
62458;BME280;48509;52.122;5.250;2023-12-20T10:19:04;101415.0;;;10.36;100.0
62458;BME280;48509;52.122;5.250;2023-12-20T10:20:40;101414.0;;;10.29;100.0
62458;BME280;48509;52.122;5.250;2023-12-20T10:22:17;101416.0;;;10.36;100.0
62458;BME280;48509;52.122;5.250;2023-12-20T10:25:30;101410.0;;;10.42;100.0
62458;BME280;48509;52.122;5.250;2023-12-20T10:27:07;101406.0;;;10.32;100.0
62458;BME280;48509;52.122;5.250;2023-12-20T10:28:44;101405.0;;;10.5;100.0
62458;BME280;48509;52.122;5.250;2023-12-20T10:31:56;101401.0;;;10.54;100.0
62458;BME280;48509;52.122;5.250;2023-12-20T10:33:32;101405.0;;;10.57;100.0
62458;BME280;48509;52.122;5.250;2023-12-20T10:35:09;101405.0;;;10.52;100.0
62458;BME280;48509;52.122;5.250;2023-12-20T10:38:21;101403.0;;;10.68;100.0
62458;BME280;48509;52.122;5.250;2023-12-20T10:39:59;101405.0;;;10.8;100.0
62458;BME280;48509;52.122;5.250;2023-12-20T10:41:38;101396.0;;;10.73;100.0
62458;BME280;48509;52.122;5.250;2023-12-20T10:43:15;101405.0;;;10.82;100.0
62458;BME280;48509;52.122;5.250;2023-12-20T10:46:29;101399.0;;;10.74;100.0
62458;BME280;48509;52.122;5.250;2023-12-20T10:48:07;101399.0;;;10.59;100.0
62458;BME280;48509;52.122;5.250;2023-12-20T10:49:44;101394.0;;;10.71;100.0
62458;BME280;48509;52.122;5.250;2023-12-20T10:52:58;101397.0;;;10.68;100.0
62458;BME280;48509;52.122;5.250;2023-12-20T10:54:35;101392.0;;;10.69;100.0
62458;BME280;48509;52.122;5.250;2023-12-20T10:56:12;101382.0;;;10.76;100.0
62458;BME280;48509;52.122;5.250;2023-12-20T10:57:51;101380.0;;;10.82;100.0
62458;BME280;48509;52.122;5.250;2023-12-20T11:01:13;101377.0;;;10.83;100.0
62458;BME280;48509;52.122;5.250;2023-12-20T11:02:50;101374.0;;;10.82;100.0
62458;BME280;48509;52.122;5.250;2023-12-20T11:04:36;101369.0;;;10.9;99.74
62458;BME280;48509;52.122;5.250;2023-12-20T11:06:26;101361.0;;;10.73;100.0
62458;BME280;48509;52.122;5.250;2023-12-20T11:10:00;101365.0;;;10.86;100.0
62458;BME280;48509;52.122;5.250;2023-12-20T11:12:01;101367.0;;;10.91;100.0
62458;BME280;48509;52.122;5.250;2023-12-20T11:13:44;101368.0;;;10.92;100.0
62458;BME280;48509;52.122;5.250;2023-12-20T11:15:24;101359.0;;;10.99;100.0
62458;BME280;48509;52.122;5.250;2023-12-20T11:17:06;101368.0;;;11.0;100.0